createdAt,value
2023-04-15T00:00:12.926Z,87269.00
2023-04-15T00:01:12.896Z,87269.00
2023-04-15T00:02:13.050Z,87265.00
2023-04-15T00:03:13.126Z,87265.00
2023-04-15T00:04:12.956Z,87267.00
2023-04-15T00:05:12.899Z,87265.00
2023-04-15T00:06:12.876Z,87265.00
2023-04-15T00:07:12.874Z,87263.00
2023-04-15T00:08:12.876Z,87263.00
2023-04-15T00:09:12.860Z,87263.00
2023-04-15T00:10:12.861Z,87263.00
2023-04-15T00:11:12.844Z,87263.00
2023-04-15T00:12:12.838Z,87263.00
2023-04-15T00:13:12.844Z,87263.00
2023-04-15T00:14:12.833Z,87265.00
2023-04-15T00:15:12.836Z,87265.00
2023-04-15T00:16:12.872Z,87265.00
2023-04-15T00:17:12.842Z,87263.00
2023-04-15T00:18:12.878Z,87265.00
2023-04-15T00:19:12.854Z,87267.00
2023-04-15T00:20:12.858Z,87265.00
2023-04-15T00:21:12.858Z,87265.00
2023-04-15T00:22:12.883Z,87265.00
2023-04-15T00:23:12.862Z,87267.00
2023-04-15T00:24:12.864Z,87269.00
2023-04-15T00:25:12.862Z,87265.00
2023-04-15T00:26:12.874Z,87267.00
2023-04-15T00:27:12.858Z,87267.00
2023-04-15T00:28:12.871Z,87267.00
2023-04-15T00:29:12.842Z,87263.00
2023-04-15T00:30:12.841Z,87263.00
2023-04-15T00:31:12.858Z,87263.00
2023-04-15T00:32:12.812Z,87263.00
2023-04-15T00:33:12.803Z,87263.00
2023-04-15T00:34:12.820Z,87265.00
2023-04-15T00:35:12.806Z,87267.00
2023-04-15T00:36:12.784Z,87267.00
2023-04-15T00:37:12.781Z,87267.00
2023-04-15T00:38:12.772Z,87267.00
2023-04-15T00:39:12.778Z,87263.00
2023-04-15T00:40:12.777Z,87263.00
2023-04-15T00:41:12.749Z,87259.00
2023-04-15T00:42:12.741Z,87263.00
2023-04-15T00:43:12.725Z,87263.00
2023-04-15T00:44:12.728Z,87259.00
2023-04-15T00:45:12.730Z,87263.00
2023-04-15T00:46:12.732Z,87261.00
2023-04-15T00:47:12.696Z,87265.00
2023-04-15T00:48:12.704Z,87265.00
2023-04-15T00:49:12.703Z,87263.00
2023-04-15T00:50:12.723Z,87263.00
2023-04-15T00:51:12.693Z,87263.00
2023-04-15T00:52:12.703Z,87263.00
2023-04-15T00:53:12.702Z,87261.00
2023-04-15T00:54:12.708Z,87263.00
2023-04-15T00:55:12.703Z,87263.00
2023-04-15T00:56:12.688Z,87261.00
2023-04-15T00:57:12.704Z,87259.00
2023-04-15T00:58:12.695Z,87261.00
2023-04-15T00:59:12.705Z,87263.00
2023-04-15T01:00:12.716Z,87263.00
2023-04-15T01:01:12.736Z,87259.00
2023-04-15T01:02:12.763Z,87263.00
2023-04-15T01:03:12.862Z,87259.00
2023-04-15T01:04:12.850Z,87257.00
2023-04-15T01:05:12.713Z,87261.00
2023-04-15T01:06:12.723Z,87255.00
2023-04-15T01:07:12.724Z,87255.00
2023-04-15T01:08:12.716Z,87259.00
2023-04-15T01:09:12.723Z,87261.00
2023-04-15T01:10:12.733Z,87261.00
2023-04-15T01:11:12.721Z,87261.00
2023-04-15T01:12:12.734Z,87261.00
2023-04-15T01:13:12.736Z,87261.00
2023-04-15T01:14:12.751Z,87261.00
2023-04-15T01:15:12.737Z,87259.00
2023-04-15T01:16:12.801Z,87259.00
2023-04-15T01:17:12.743Z,87261.00
2023-04-15T01:18:12.749Z,87257.00
2023-04-15T01:19:12.747Z,87257.00
2023-04-15T01:20:12.747Z,87259.00
2023-04-15T01:21:12.746Z,87259.00
2023-04-15T01:22:12.780Z,87259.00
2023-04-15T01:23:12.823Z,87259.00
2023-04-15T01:24:12.834Z,87261.00
2023-04-15T01:25:12.826Z,87257.00
2023-04-15T01:26:12.849Z,87259.00
2023-04-15T01:27:12.879Z,87257.00
2023-04-15T01:28:12.865Z,87257.00
2023-04-15T01:29:12.861Z,87255.00
2023-04-15T01:30:12.867Z,87257.00
2023-04-15T01:31:12.964Z,87255.00
2023-04-15T01:32:12.858Z,87257.00
2023-04-15T01:33:12.865Z,87259.00
2023-04-15T01:34:12.866Z,87257.00
2023-04-15T01:35:12.869Z,87261.00
2023-04-15T01:36:12.876Z,87263.00
2023-04-15T01:37:12.862Z,87261.00
2023-04-15T01:38:12.870Z,87261.00
2023-04-15T01:39:12.902Z,87261.00
2023-04-15T01:40:12.948Z,87259.00
2023-04-15T01:41:12.931Z,87259.00
2023-04-15T01:42:12.950Z,87259.00
2023-04-15T01:43:12.961Z,87257.00
2023-04-15T01:44:12.959Z,87257.00
2023-04-15T01:45:12.956Z,87257.00
2023-04-15T01:46:12.975Z,87255.00
2023-04-15T01:47:12.992Z,87255.00
2023-04-15T01:48:12.985Z,87255.00
2023-04-15T01:49:12.993Z,87255.00
2023-04-15T01:50:12.989Z,87255.00
2023-04-15T01:51:12.971Z,87255.00
2023-04-15T01:52:12.964Z,87259.00
2023-04-15T01:53:12.976Z,87257.00
2023-04-15T01:54:12.982Z,87259.00
2023-04-15T01:55:12.960Z,87259.00
2023-04-15T01:56:13.850Z,87259.00
2023-04-15T01:57:12.938Z,87259.00
2023-04-15T01:58:12.943Z,87261.00
2023-04-15T01:59:12.941Z,87261.00
2023-04-15T02:01:31.911Z,87259.00
2023-04-15T02:02:31.956Z,87257.00
2023-04-15T02:03:31.981Z,87259.00
2023-04-15T02:04:31.850Z,87255.00
2023-04-15T02:05:31.808Z,87255.00
2023-04-15T02:06:31.775Z,87251.00
2023-04-15T02:07:31.743Z,87253.00
2023-04-15T02:08:31.718Z,87251.00
2023-04-15T02:09:31.702Z,87253.00
2023-04-15T02:10:31.699Z,87253.00
2023-04-15T02:11:31.686Z,87251.00
2023-04-15T02:12:31.628Z,87251.00
2023-04-15T02:13:31.594Z,87253.00
2023-04-15T02:14:31.593Z,87251.00
2023-04-15T02:15:31.540Z,87253.00
2023-04-15T02:16:31.572Z,87253.00
2023-04-15T02:17:31.516Z,87253.00
2023-04-15T02:18:31.492Z,87253.00
2023-04-15T02:19:31.470Z,87255.00
2023-04-15T02:20:31.420Z,87257.00
2023-04-15T02:21:31.388Z,87257.00
2023-04-15T02:22:31.403Z,87255.00
2023-04-15T02:23:31.345Z,87259.00
2023-04-15T02:24:31.323Z,87255.00
2023-04-15T02:25:31.288Z,87255.00
2023-04-15T02:26:31.258Z,87257.00
2023-04-15T02:27:31.227Z,87257.00
2023-04-15T02:28:31.196Z,87255.00
2023-04-15T02:29:31.196Z,87253.00
2023-04-15T02:30:31.168Z,87253.00
2023-04-15T02:31:31.192Z,87255.00
2023-04-15T02:32:31.116Z,87251.00
2023-04-15T02:33:31.097Z,87253.00
2023-04-15T02:34:31.073Z,87255.00
2023-04-15T02:35:31.034Z,87255.00
2023-04-15T02:36:31.033Z,87253.00
2023-04-15T02:37:31.000Z,87251.00
2023-04-15T02:38:30.995Z,87251.00
2023-04-15T02:39:30.950Z,87255.00
2023-04-15T02:40:30.924Z,87253.00
2023-04-15T02:41:30.900Z,87257.00
2023-04-15T02:42:30.874Z,87259.00
2023-04-15T02:43:30.848Z,87259.00
2023-04-15T02:44:30.828Z,87259.00
2023-04-15T02:45:30.833Z,87261.00
2023-04-15T02:46:30.832Z,87261.00
2023-04-15T02:47:30.784Z,87261.00
2023-04-15T02:48:30.731Z,87259.00
2023-04-15T02:49:30.717Z,87257.00
2023-04-15T02:50:30.680Z,87257.00
2023-04-15T02:51:30.650Z,87257.00
2023-04-15T02:52:30.622Z,87255.00
2023-04-15T02:53:30.601Z,87255.00
2023-04-15T02:54:30.584Z,87255.00
2023-04-15T02:55:30.566Z,87257.00
2023-04-15T02:56:30.537Z,87255.00
2023-04-15T02:57:30.521Z,87257.00
2023-04-15T02:58:30.493Z,87259.00
2023-04-15T02:59:30.468Z,87257.00
2023-04-15T03:00:30.436Z,87257.00
2023-04-15T03:01:30.475Z,87259.00
2023-04-15T03:02:30.468Z,87259.00
2023-04-15T03:03:30.468Z,87257.00
2023-04-15T03:04:30.328Z,87257.00
2023-04-15T03:05:30.320Z,87259.00
2023-04-15T03:06:30.282Z,87255.00
2023-04-15T03:07:30.264Z,87253.00
2023-04-15T03:08:30.230Z,87253.00
2023-04-15T03:09:30.221Z,87251.00
2023-04-15T03:10:30.202Z,87249.00
2023-04-15T03:11:30.175Z,87249.00
2023-04-15T03:12:30.136Z,87251.00
2023-04-15T03:13:30.118Z,87249.00
2023-04-15T03:14:30.106Z,87251.00
2023-04-15T03:15:30.127Z,87249.00
2023-04-15T03:16:30.062Z,87249.00
2023-04-15T03:17:30.085Z,87251.00
2023-04-15T03:18:30.062Z,87249.00
2023-04-15T03:19:30.004Z,87251.00
2023-04-15T03:20:30.056Z,87251.00
2023-04-15T03:21:29.956Z,87251.00
2023-04-15T03:22:29.933Z,87249.00
2023-04-15T03:23:29.909Z,87249.00
2023-04-15T03:24:29.901Z,87249.00
2023-04-15T03:25:29.886Z,87249.00
2023-04-15T03:26:29.867Z,87247.00
2023-04-15T03:27:29.838Z,87249.00
2023-04-15T03:28:29.853Z,87245.00
2023-04-15T03:29:29.784Z,87247.00
2023-04-15T03:30:29.779Z,87247.00
2023-04-15T03:31:29.784Z,87245.00
2023-04-15T03:32:29.758Z,87247.00
2023-04-15T03:33:29.697Z,87247.00
2023-04-15T03:34:29.655Z,87249.00
2023-04-15T03:35:29.689Z,87249.00
2023-04-15T03:36:29.603Z,87249.00
2023-04-15T03:37:29.590Z,87249.00
2023-04-15T03:38:29.561Z,87249.00
2023-04-15T03:39:29.549Z,87247.00
2023-04-15T03:40:29.522Z,87245.00
2023-04-15T03:41:29.488Z,87247.00
2023-04-15T03:42:29.465Z,87249.00
2023-04-15T03:43:29.464Z,87249.00
2023-04-15T03:44:29.458Z,87247.00
2023-04-15T03:45:29.439Z,87247.00
2023-04-15T03:46:29.455Z,87247.00
2023-04-15T03:47:29.420Z,87249.00
2023-04-15T03:48:29.408Z,87245.00
2023-04-15T03:49:29.398Z,87247.00
2023-04-15T03:50:29.412Z,87251.00
2023-04-15T03:51:29.380Z,87251.00
2023-04-15T03:52:29.385Z,87253.00
2023-04-15T03:53:29.382Z,87251.00
2023-04-15T03:54:29.374Z,87253.00
2023-04-15T03:55:29.383Z,87251.00
2023-04-15T03:56:29.377Z,87247.00
2023-04-15T03:57:29.378Z,87245.00
2023-04-15T03:58:29.383Z,87247.00
2023-04-15T03:59:29.375Z,87251.00
2023-04-15T04:00:29.386Z,87257.00
2023-04-15T04:01:29.392Z,87255.00
2023-04-15T04:02:29.489Z,87257.00
2023-04-15T04:03:29.493Z,87255.00
2023-04-15T04:04:29.495Z,87257.00
2023-04-15T04:05:29.410Z,87257.00
2023-04-15T04:06:29.401Z,87255.00
2023-04-15T04:07:29.407Z,87257.00
2023-04-15T04:08:29.436Z,87255.00
2023-04-15T04:09:29.420Z,87259.00
2023-04-15T04:10:29.435Z,87259.00
2023-04-15T04:11:29.437Z,87259.00
2023-04-15T04:12:29.432Z,87259.00
2023-04-15T04:13:29.436Z,87257.00
2023-04-15T04:14:29.435Z,87257.00
2023-04-15T04:15:29.465Z,87259.00
2023-04-15T04:16:29.535Z,87257.00
2023-04-15T04:17:29.525Z,87255.00
2023-04-15T04:18:29.476Z,87257.00
2023-04-15T04:19:29.481Z,87255.00
2023-04-15T04:20:29.514Z,87259.00
2023-04-15T04:21:29.500Z,87263.00
2023-04-15T04:22:29.520Z,87263.00
2023-04-15T04:23:29.523Z,87263.00
2023-04-15T04:24:29.555Z,87261.00
2023-04-15T04:25:29.577Z,87261.00
2023-04-15T04:26:29.549Z,87255.00
2023-04-15T04:27:29.574Z,87257.00
2023-04-15T04:28:29.566Z,87257.00
2023-04-15T04:29:29.567Z,87259.00
2023-04-15T04:30:29.578Z,87261.00
2023-04-15T04:31:29.629Z,87259.00
2023-04-15T04:32:29.638Z,87261.00
2023-04-15T04:33:29.605Z,87267.00
2023-04-15T04:34:29.611Z,87267.00
2023-04-15T04:35:29.624Z,87269.00
2023-04-15T04:36:29.651Z,87269.00
2023-04-15T04:37:29.654Z,87263.00
2023-04-15T04:38:29.688Z,87265.00
2023-04-15T04:39:29.678Z,87265.00
2023-04-15T04:40:29.684Z,87269.00
2023-04-15T04:41:29.712Z,87271.00
2023-04-15T04:42:29.716Z,87271.00
2023-04-15T04:43:29.738Z,87271.00
2023-04-15T04:44:29.750Z,87269.00
2023-04-15T04:45:29.757Z,87277.00
2023-04-15T04:46:29.806Z,87275.00
2023-04-15T04:47:29.886Z,87273.00
2023-04-15T04:48:29.818Z,87271.00
2023-04-15T04:49:29.832Z,87271.00
2023-04-15T04:50:29.848Z,87277.00
2023-04-15T04:51:29.865Z,87282.00
2023-04-15T04:52:29.882Z,87284.00
2023-04-15T04:53:29.918Z,87278.00
2023-04-15T04:54:29.905Z,87282.00
2023-04-15T04:55:29.942Z,87282.00
2023-04-15T04:56:29.954Z,87282.00
2023-04-15T04:57:29.987Z,87284.00
2023-04-15T04:58:29.984Z,87282.00
2023-04-15T04:59:30.015Z,87284.00
2023-04-15T05:00:30.038Z,87284.00
2023-04-15T05:01:30.113Z,87288.00
2023-04-15T05:02:30.191Z,87288.00
2023-04-15T05:03:30.167Z,87290.00
2023-04-15T05:04:30.103Z,87294.00
2023-04-15T05:05:30.130Z,87290.00
2023-04-15T05:06:30.132Z,87292.00
2023-04-15T05:07:30.161Z,87290.00
2023-04-15T05:08:30.171Z,87290.00
2023-04-15T05:09:30.182Z,87290.00
2023-04-15T05:10:30.210Z,87290.00
2023-04-15T05:11:30.218Z,87286.00
2023-04-15T05:12:30.188Z,87288.00
2023-04-15T05:13:30.215Z,87290.00
2023-04-15T05:14:30.155Z,87290.00
2023-04-15T05:15:30.182Z,87288.00
2023-04-15T05:16:30.134Z,87288.00
2023-04-15T05:17:30.139Z,87288.00
2023-04-15T05:18:30.085Z,87286.00
2023-04-15T05:19:30.085Z,87286.00
2023-04-15T05:20:30.053Z,87286.00
2023-04-15T05:21:30.054Z,87282.00
2023-04-15T05:22:30.026Z,87284.00
2023-04-15T05:23:30.027Z,87282.00
2023-04-15T05:24:29.996Z,87282.00
2023-04-15T05:25:29.990Z,87282.00
2023-04-15T05:26:29.964Z,87284.00
2023-04-15T05:27:29.950Z,87286.00
2023-04-15T05:28:29.939Z,87282.00
2023-04-15T05:29:29.973Z,87277.00
2023-04-15T05:30:29.958Z,87280.00
2023-04-15T05:31:29.989Z,87280.00
2023-04-15T05:32:30.003Z,87280.00
2023-04-15T05:33:30.001Z,87286.00
2023-04-15T05:34:30.013Z,87286.00
2023-04-15T05:35:30.028Z,87288.00
2023-04-15T05:36:30.034Z,87284.00
2023-04-15T05:37:30.054Z,87290.00
2023-04-15T05:38:30.049Z,87292.00
2023-04-15T05:39:30.082Z,87292.00
2023-04-15T05:40:30.072Z,87286.00
2023-04-15T05:41:30.088Z,87288.00
2023-04-15T05:42:30.090Z,87290.00
2023-04-15T05:43:30.101Z,87294.00
2023-04-15T05:44:30.116Z,87296.00
2023-04-15T05:45:30.124Z,87298.00
2023-04-15T05:46:30.184Z,87298.00
2023-04-15T05:48:49.101Z,87302.00
2023-04-15T05:49:49.092Z,87300.00
2023-04-15T05:50:49.085Z,87296.00
2023-04-15T05:51:49.072Z,87296.00
2023-04-15T05:52:49.040Z,87296.00
2023-04-15T05:53:49.092Z,87294.00
2023-04-15T05:54:49.062Z,87298.00
2023-04-15T05:55:48.990Z,87302.00
2023-04-15T05:56:49.058Z,87300.00
2023-04-15T05:57:48.943Z,87298.00
2023-04-15T05:58:48.916Z,87296.00
2023-04-15T05:59:48.885Z,87302.00
2023-04-15T06:00:48.857Z,87300.00
2023-04-15T06:01:48.861Z,87298.00
2023-04-15T06:02:48.870Z,87296.00
2023-04-15T06:03:48.870Z,87296.00
2023-04-15T06:04:48.841Z,87298.00
2023-04-15T06:05:48.727Z,87302.00
2023-04-15T06:06:48.721Z,87306.00
2023-04-15T06:07:48.832Z,87304.00
2023-04-15T06:08:48.664Z,87302.00
2023-04-15T06:09:48.650Z,87304.00
2023-04-15T06:10:48.597Z,87302.00
2023-04-15T06:11:48.600Z,87302.00
2023-04-15T06:12:48.567Z,87302.00
2023-04-15T06:13:48.538Z,87302.00
2023-04-15T06:14:48.530Z,87300.00
2023-04-15T06:15:48.513Z,87304.00
2023-04-15T06:16:48.485Z,87306.00
2023-04-15T06:17:48.470Z,87304.00
2023-04-15T06:18:48.440Z,87304.00
2023-04-15T06:19:48.448Z,87306.00
2023-04-15T06:20:48.377Z,87304.00
2023-04-15T06:21:48.363Z,87298.00
2023-04-15T06:22:48.339Z,87302.00
2023-04-15T06:23:48.323Z,87304.00
2023-04-15T06:24:48.279Z,87298.00
2023-04-15T06:25:48.266Z,87302.00
2023-04-15T06:26:48.253Z,87304.00
2023-04-15T06:27:48.257Z,87302.00
2023-04-15T06:28:48.275Z,87304.00
2023-04-15T06:29:48.278Z,87304.00
2023-04-15T06:30:48.281Z,87302.00
2023-04-15T06:31:48.287Z,87300.00
2023-04-15T06:32:48.320Z,87294.00
2023-04-15T06:33:48.361Z,87298.00
2023-04-15T06:34:48.286Z,87300.00
2023-04-15T06:35:48.301Z,87298.00
2023-04-15T06:36:48.312Z,87306.00
2023-04-15T06:37:48.315Z,87304.00
2023-04-15T06:38:48.322Z,87302.00
2023-04-15T06:39:48.328Z,87308.00
2023-04-15T06:40:48.320Z,87308.00
2023-04-15T06:41:48.334Z,87310.00
2023-04-15T06:42:48.344Z,87306.00
2023-04-15T06:43:48.344Z,87304.00
2023-04-15T06:44:48.349Z,87300.00
2023-04-15T06:45:48.367Z,87304.00
2023-04-15T06:46:48.341Z,87302.00
2023-04-15T06:47:48.382Z,87298.00
2023-04-15T06:48:48.346Z,87300.00
2023-04-15T06:49:48.351Z,87296.00
2023-04-15T06:50:48.366Z,87298.00
2023-04-15T06:51:48.385Z,87300.00
2023-04-15T06:52:48.384Z,87300.00
2023-04-15T06:53:48.361Z,87298.00
2023-04-15T06:54:48.411Z,87298.00
2023-04-15T06:55:48.442Z,87296.00
2023-04-15T06:56:48.370Z,87302.00
2023-04-15T06:57:48.391Z,87304.00
2023-04-15T06:58:48.360Z,87302.00
2023-04-15T06:59:48.322Z,87302.00
2023-04-15T07:00:48.346Z,87302.00
2023-04-15T07:01:48.338Z,87306.00
2023-04-15T07:02:48.288Z,87306.00
2023-04-15T07:03:48.345Z,87304.00
2023-04-15T07:04:48.204Z,87304.00
2023-04-15T07:05:48.166Z,87302.00
2023-04-15T07:06:48.169Z,87304.00
2023-04-15T07:07:48.120Z,87306.00
2023-04-15T07:08:48.088Z,87302.00
2023-04-15T07:09:48.054Z,87304.00
2023-04-15T07:10:48.029Z,87300.00
2023-04-15T07:11:48.007Z,87298.00
2023-04-15T07:12:47.992Z,87300.00
2023-04-15T07:13:47.963Z,87300.00
2023-04-15T07:14:47.929Z,87296.00
2023-04-15T07:15:47.905Z,87300.00
2023-04-15T07:16:47.904Z,87296.00
2023-04-15T07:17:47.874Z,87300.00
2023-04-15T07:18:47.807Z,87300.00
2023-04-15T07:19:47.820Z,87298.00
2023-04-15T07:20:47.797Z,87298.00
2023-04-15T07:21:47.805Z,87300.00
2023-04-15T07:22:47.788Z,87298.00
2023-04-15T07:23:47.783Z,87298.00
2023-04-15T07:24:47.773Z,87298.00
2023-04-15T07:25:47.785Z,87296.00
2023-04-15T07:26:47.819Z,87296.00
2023-04-15T07:27:47.780Z,87296.00
2023-04-15T07:28:47.779Z,87298.00
2023-04-15T07:29:47.774Z,87298.00
2023-04-15T07:30:47.792Z,87296.00
2023-04-15T07:31:47.759Z,87296.00
2023-04-15T07:32:47.807Z,87298.00
2023-04-15T07:33:47.739Z,87300.00
2023-04-15T07:34:47.729Z,87300.00
2023-04-15T07:35:47.736Z,87302.00
2023-04-15T07:36:47.710Z,87300.00
2023-04-15T07:37:47.701Z,87300.00
2023-04-15T07:38:47.687Z,87300.00
2023-04-15T07:39:47.662Z,87298.00
2023-04-15T07:40:47.640Z,87298.00
2023-04-15T07:41:47.639Z,87294.00
2023-04-15T07:42:47.615Z,87294.00
2023-04-15T07:43:47.607Z,87296.00
2023-04-15T07:44:47.581Z,87296.00
2023-04-15T07:45:47.571Z,87292.00
2023-04-15T07:46:47.549Z,87294.00
2023-04-15T07:47:47.565Z,87296.00
2023-04-15T07:48:47.520Z,87294.00
2023-04-15T07:49:47.488Z,87292.00
2023-04-15T07:50:47.460Z,87292.00
2023-04-15T07:51:47.427Z,87294.00
2023-04-15T07:52:47.404Z,87292.00
2023-04-15T07:53:47.363Z,87292.00
2023-04-15T07:54:47.336Z,87290.00
2023-04-15T07:55:47.320Z,87292.00
2023-04-15T07:56:47.293Z,87292.00
2023-04-15T07:57:47.271Z,87292.00
2023-04-15T07:58:47.227Z,87296.00
2023-04-15T07:59:47.226Z,87292.00
2023-04-15T08:00:47.162Z,87288.00
2023-04-15T08:01:47.172Z,87290.00
2023-04-15T08:02:47.219Z,87290.00
2023-04-15T08:03:47.159Z,87288.00
2023-04-15T08:04:47.138Z,87294.00
2023-04-15T08:05:47.019Z,87290.00
2023-04-15T08:06:46.980Z,87292.00
2023-04-15T08:07:47.028Z,87294.00
2023-04-15T08:08:46.923Z,87294.00
2023-04-15T08:09:46.900Z,87292.00
2023-04-15T08:10:46.883Z,87290.00
2023-04-15T08:11:46.831Z,87292.00
2023-04-15T08:12:46.805Z,87290.00
2023-04-15T08:13:46.763Z,87288.00
2023-04-15T08:14:46.728Z,87286.00
2023-04-15T08:15:46.732Z,87286.00
2023-04-15T08:16:46.679Z,87282.00
2023-04-15T08:17:46.684Z,87284.00
2023-04-15T08:18:46.594Z,87280.00
2023-04-15T08:19:46.613Z,87282.00
2023-04-15T08:20:46.607Z,87284.00
2023-04-15T08:21:46.648Z,87280.00
2023-04-15T08:22:46.693Z,87282.00
2023-04-15T08:23:46.694Z,87282.00
2023-04-15T08:24:46.725Z,87280.00
2023-04-15T08:25:46.759Z,87282.00
2023-04-15T08:26:46.848Z,87288.00
2023-04-15T08:27:46.762Z,87284.00
2023-04-15T08:28:46.726Z,87282.00
2023-04-15T08:29:46.716Z,87284.00
2023-04-15T08:30:46.665Z,87284.00
2023-04-15T08:31:46.646Z,87288.00
2023-04-15T08:32:46.663Z,87286.00
2023-04-15T08:33:46.560Z,87286.00
2023-04-15T08:34:46.532Z,87288.00
2023-04-15T08:35:46.568Z,87286.00
2023-04-15T08:36:46.588Z,87288.00
2023-04-15T08:37:46.611Z,87286.00
2023-04-15T08:38:46.641Z,87286.00
2023-04-15T08:39:46.690Z,87286.00
2023-04-15T08:40:46.718Z,87286.00
2023-04-15T08:41:46.689Z,87286.00
2023-04-15T08:42:46.646Z,87288.00
2023-04-15T08:43:46.608Z,87286.00
2023-04-15T08:44:46.580Z,87284.00
2023-04-15T08:45:46.532Z,87288.00
2023-04-15T08:46:46.558Z,87288.00
2023-04-15T08:47:46.512Z,87288.00
2023-04-15T08:48:46.422Z,87286.00
2023-04-15T08:49:46.400Z,87282.00
2023-04-15T08:50:46.410Z,87280.00
2023-04-15T08:51:46.439Z,87282.00
2023-04-15T08:52:46.461Z,87282.00
2023-04-15T08:53:46.496Z,87278.00
2023-04-15T08:54:46.518Z,87278.00
2023-04-15T08:55:46.547Z,87278.00
2023-04-15T08:56:46.583Z,87278.00
2023-04-15T08:57:46.604Z,87280.00
2023-04-15T08:58:46.635Z,87277.00
2023-04-15T08:59:46.627Z,87278.00
2023-04-15T09:00:46.752Z,87278.00
2023-04-15T09:01:46.716Z,87277.00
2023-04-15T09:02:46.824Z,87278.00
2023-04-15T09:03:46.814Z,87277.00
2023-04-15T09:04:46.734Z,87278.00
2023-04-15T09:05:46.759Z,87277.00
2023-04-15T09:06:46.725Z,87278.00
2023-04-15T09:07:46.737Z,87275.00
2023-04-15T09:08:46.632Z,87275.00
2023-04-15T09:09:46.591Z,87275.00
2023-04-15T09:10:46.540Z,87275.00
2023-04-15T09:11:46.500Z,87271.00
2023-04-15T09:12:46.452Z,87273.00
2023-04-15T09:13:46.412Z,87275.00
2023-04-15T09:14:46.371Z,87273.00
2023-04-15T09:15:46.310Z,87271.00
2023-04-15T09:16:47.335Z,87271.00
2023-04-15T09:17:46.319Z,87273.00
2023-04-15T09:18:46.299Z,87269.00
2023-04-15T09:19:46.311Z,87269.00
2023-04-15T09:20:46.317Z,87271.00
2023-04-15T09:21:46.312Z,87271.00
2023-04-15T09:22:46.333Z,87267.00
2023-04-15T09:23:46.339Z,87271.00
2023-04-15T09:24:46.348Z,87269.00
2023-04-15T09:25:46.351Z,87269.00
2023-04-15T09:26:46.355Z,87267.00
2023-04-15T09:27:46.364Z,87265.00
2023-04-15T09:28:46.379Z,87267.00
2023-04-15T09:29:46.394Z,87263.00
2023-04-15T09:30:47.122Z,87263.00
2023-04-15T09:31:46.397Z,87269.00
2023-04-15T09:32:46.408Z,87271.00
2023-04-15T09:33:46.401Z,87269.00
2023-04-15T09:34:46.400Z,87269.00
2023-04-15T09:35:46.438Z,87265.00
2023-04-15T09:36:46.679Z,87265.00
2023-04-15T09:37:46.409Z,87263.00
2023-04-15T09:38:46.422Z,87261.00
2023-04-15T09:39:46.407Z,87261.00
2023-04-15T09:40:46.407Z,87259.00
2023-04-15T09:41:46.417Z,87263.00
2023-04-15T09:42:46.852Z,87263.00
2023-04-15T09:43:46.412Z,87259.00
2023-04-15T09:44:46.416Z,87259.00
2023-04-15T09:45:46.455Z,87261.00
2023-04-15T09:46:46.414Z,87265.00
2023-04-15T09:47:46.437Z,87263.00
2023-04-15T09:48:46.413Z,87265.00
2023-04-15T09:49:46.449Z,87257.00
2023-04-15T09:50:46.408Z,87259.00
2023-04-15T09:51:57.618Z,87261.00
2023-04-15T09:52:47.356Z,87259.00
2023-04-15T09:53:46.315Z,87261.00
2023-04-15T09:54:46.256Z,87261.00
2023-04-15T09:55:46.207Z,87259.00
2023-04-15T09:56:46.164Z,87263.00
2023-04-15T09:57:46.136Z,87259.00
2023-04-15T09:58:46.094Z,87261.00
2023-04-15T09:59:46.035Z,87261.00
2023-04-15T10:00:45.993Z,87261.00
2023-04-15T10:01:46.046Z,87257.00
2023-04-15T10:02:45.958Z,87261.00
2023-04-15T10:03:45.904Z,87261.00
2023-04-15T10:04:45.794Z,87259.00
2023-04-15T10:05:45.737Z,87261.00
2023-04-15T10:06:45.692Z,87263.00
2023-04-15T10:07:45.671Z,87259.00
2023-04-15T10:08:45.651Z,87263.00
2023-04-15T10:09:45.630Z,87261.00
2023-04-15T10:10:45.613Z,87261.00
2023-04-15T10:11:45.606Z,87253.00
2023-04-15T10:12:45.612Z,87259.00
2023-04-15T10:13:45.584Z,87261.00
2023-04-15T10:14:45.584Z,87259.00
2023-04-15T10:15:45.587Z,87259.00
2023-04-15T10:16:45.541Z,87259.00
2023-04-15T10:17:45.565Z,87255.00
2023-04-15T10:18:45.510Z,87261.00
2023-04-15T10:19:45.493Z,87261.00
2023-04-15T10:20:45.457Z,87257.00
2023-04-15T10:21:45.435Z,87261.00
2023-04-15T10:22:45.435Z,87263.00
2023-04-15T10:23:45.411Z,87263.00
2023-04-15T10:24:45.356Z,87265.00
2023-04-15T10:25:45.292Z,87259.00
2023-04-15T10:26:45.246Z,87263.00
2023-04-15T10:27:45.213Z,87263.00
2023-04-15T10:28:45.180Z,87259.00
2023-04-15T10:29:45.117Z,87261.00
2023-04-15T10:30:45.071Z,87261.00
2023-04-15T10:31:45.159Z,87261.00
2023-04-15T10:32:44.967Z,87259.00
2023-04-15T10:33:44.916Z,87263.00
2023-04-15T10:34:44.884Z,87263.00
2023-04-15T10:35:44.837Z,87263.00
2023-04-15T10:36:44.786Z,87263.00
2023-04-15T10:37:44.742Z,87265.00
2023-04-15T10:38:44.717Z,87267.00
2023-04-15T10:39:44.741Z,87265.00
2023-04-15T10:40:44.697Z,87271.00
2023-04-15T10:41:44.568Z,87271.00
2023-04-15T10:42:44.542Z,87271.00
2023-04-15T10:43:44.443Z,87267.00
2023-04-15T10:44:44.414Z,87269.00
2023-04-15T10:45:44.397Z,87269.00
2023-04-15T10:46:44.409Z,87273.00
2023-04-15T10:47:44.447Z,87269.00
2023-04-15T10:48:44.340Z,87271.00
2023-04-15T10:49:44.381Z,87273.00
2023-04-15T10:50:44.372Z,87275.00
2023-04-15T10:51:44.413Z,87275.00
2023-04-15T10:52:44.295Z,87277.00
2023-04-15T10:53:44.398Z,87282.00
2023-04-15T10:54:44.327Z,87277.00
2023-04-15T10:55:44.255Z,87282.00
2023-04-15T10:56:44.350Z,87282.00
2023-04-15T10:57:44.254Z,87278.00
2023-04-15T10:58:44.256Z,87278.00
2023-04-15T10:59:44.227Z,87280.00
2023-04-15T11:00:44.295Z,87275.00
2023-04-15T11:01:44.249Z,87273.00
2023-04-15T11:02:44.428Z,87273.00
2023-04-15T11:03:44.387Z,87271.00
2023-04-15T11:04:44.262Z,87269.00
2023-04-15T11:05:44.210Z,87273.00
2023-04-15T11:06:44.201Z,87275.00
2023-04-15T11:07:44.206Z,87275.00
2023-04-15T11:08:44.196Z,87273.00
2023-04-15T11:09:44.190Z,87277.00
2023-04-15T11:10:44.203Z,87277.00
2023-04-15T11:11:44.946Z,87273.00
2023-04-15T11:12:44.194Z,87277.00
2023-04-15T11:13:44.193Z,87275.00
2023-04-15T11:14:44.194Z,87277.00
2023-04-15T11:15:44.184Z,87277.00
2023-04-15T11:16:44.219Z,87273.00
2023-04-15T11:17:46.438Z,87271.00
2023-04-15T11:18:44.187Z,87273.00
2023-04-15T11:19:44.186Z,87273.00
2023-04-15T11:20:44.230Z,87271.00
2023-04-15T11:21:44.198Z,87275.00
2023-04-15T11:22:44.193Z,87278.00
2023-04-15T11:23:44.224Z,87280.00
2023-04-15T11:24:44.204Z,87277.00
2023-04-15T11:25:44.351Z,87277.00
2023-04-15T11:26:44.182Z,87277.00
2023-04-15T11:27:44.179Z,87277.00
2023-04-15T11:28:44.183Z,87273.00
2023-04-15T11:29:44.233Z,87273.00
2023-04-15T11:30:44.210Z,87275.00
2023-04-15T11:31:44.268Z,87269.00
2023-04-15T11:32:44.260Z,87271.00
2023-04-15T11:33:44.195Z,87271.00
2023-04-15T11:34:44.211Z,87273.00
2023-04-15T11:35:44.205Z,87271.00
2023-04-15T11:36:44.222Z,87271.00
2023-04-15T11:37:44.227Z,87271.00
2023-04-15T11:38:44.226Z,87273.00
2023-04-15T11:39:44.281Z,87277.00
2023-04-15T11:40:46.769Z,87277.00
2023-04-15T11:41:44.198Z,87275.00
2023-04-15T11:42:49.911Z,87277.00
2023-04-15T11:43:45.126Z,87275.00
2023-04-15T11:44:44.437Z,87275.00
2023-04-15T11:45:44.103Z,87278.00
2023-04-15T11:46:45.670Z,87278.00